Time;durP1;ratioP1;P1;durP2;ratioP2;P2;SDS_P1;SDS_P2;PMS_P1;PMS_P2;Temp;Humidity;BMP_temperature;BMP_pressure;BME280_temperature;BME280_humidity;BME280_pressure;Samples;Min_cycle;Max_cycle;Signal;HPM_P1;HPM_P2
2023/06/16 00:01:59;;;;;;;;;;;;;;;;;;5065364;28;19938;-60
2023/06/16 00:04:28;;;;;;;;;;;;;;;;;;5059694;28;20017;-60
2023/06/16 00:06:54;;;;;;;;;;;;;;;;;;5072216;28;19995;-60
2023/06/16 00:09:21;;;;;;;;;;;;;;;;;;5061721;28;19952;-60
2023/06/16 00:11:47;;;;;;;;;;;;;;;;;;5070833;28;19944;-60
2023/06/16 00:14:13;;;;;;;;;;;;;;;;;;5070184;28;20491;-60
2023/06/16 00:16:40;;;;;;;;;;;;;;;;;;5071958;28;19925;-60
2023/06/16 00:19:06;;;;;;;;;;;;;;;;;;5069080;28;20352;-60
2023/06/16 00:21:38;;;;;;;;;;;;;;;;;;5067212;28;19970;-59
2023/06/16 00:24:05;;;;;;;;;;;;;;;;;;5071974;28;19932;-60
2023/06/16 00:26:31;;;;;;;;;;;;;;;;;;5062039;28;20043;-60
2023/06/16 00:28:57;;;;;;;;;;;;;;;;;;5057845;28;20196;-60
2023/06/16 00:31:25;;;;;;;;;;;;;;;;;;5067086;28;19993;-60
2023/06/16 00:33:51;;;;;;;;;;;;;;;;;;5053398;28;20003;-60
2023/06/16 00:36:17;;;;;;;;;;;;;;;;;;5069844;28;19999;-60
2023/06/16 00:38:43;;;;;;;;;;;;;;;;;;5063367;28;20009;-60
2023/06/16 00:41:09;;;;;;;;;;;;;;;;;;5070411;28;20005;-60
2023/06/16 00:43:35;;;;;;;;;;;;;;;;;;5066407;28;20004;-60
2023/06/16 00:46:01;;;;;;;;;;;;;;;;;;5067602;28;19913;-60
2023/06/16 00:48:26;;;;;;;;;;;;;;;;;;5058317;28;19952;-59
2023/06/16 00:50:54;;;;;;;;;;;;;;;;;;5063960;28;19981;-60
2023/06/16 00:53:20;;;;;;;;;;;;;;;;;;5069753;28;19946;-60
2023/06/16 00:55:46;;;;;;;;;;;;;;;;;;5070646;28;20376;-60
2023/06/16 00:58:12;;;;;;;;;;;;;;;;;;5073009;28;19918;-59
2023/06/16 01:00:38;;;;;;;;;;;;;;;;;;5073856;28;19913;-60
2023/06/16 01:03:04;;;;;;;;;;;;;;;;;;5063521;28;20383;-59
2023/06/16 01:05:30;;;;;;;;;;;;;;;;;;5071881;28;19916;-59
2023/06/16 01:07:59;;;;;;;;;;;;;;;;;;5075294;28;20011;-60
2023/06/16 01:10:25;;;;;;;;;;;;;;;;;;5070272;28;19966;-59
2023/06/16 01:12:50;;;;;;;;;;;;;;;;;;5072538;28;19951;-60
2023/06/16 01:15:16;;;;;;;;;;;;;;;;;;5070287;28;20387;-60
2023/06/16 01:17:43;;;;;;;;;;;;;;;;;;5073975;28;19913;-59
2023/06/16 01:20:09;;;;;;;;;;;;;;;;;;5071180;28;19912;-59
2023/06/16 01:22:35;;;;;;;;;;;;;;;;;;5072217;28;19934;-60
2023/06/16 01:25:03;;;;;;;;;;;;;;;;;;5072931;28;19959;-59
2023/06/16 01:27:29;;;;;;;;;;;;;;;;;;5071267;28;19913;-59
2023/06/16 01:29:56;;;;;;;;;;;;;;;;;;5074249;28;19983;-60
2023/06/16 01:32:22;;;;;;;;;;;;;;;;;;5059666;28;19973;-59
2023/06/16 01:34:48;;;;;;;;;;;;;;;;;;5069636;28;19920;-59
2023/06/16 01:37:14;;;;;;;;;;;;;;;;;;5074034;28;20100;-59
2023/06/16 01:39:40;;;;;;;;;;;;;;;;;;5072715;28;19959;-60
2023/06/16 01:42:05;;;;;;;;;;;;;;;;;;5064525;28;19975;-59
2023/06/16 01:44:31;;;;;;;;;;;;;;;;;;5070960;28;19912;-60
2023/06/16 01:46:57;;;;;;;;;;;;;;;;;;5074658;28;19920;-59
2023/06/16 01:49:23;;;;;;;;;;;;;;;;;;5073976;28;19912;-59
2023/06/16 01:51:49;;;;;;;;;;;;;;;;;;5069790;28;20007;-59
2023/06/16 01:54:15;;;;;;;;;;;;;;;;;;5079051;28;19996;-60
2023/06/16 01:56:41;;;;;;;;;;;;;;;;;;5070070;28;19954;-59
2023/06/16 01:59:07;;;;;;;;;;;;;;;;;;5073772;28;19912;-60
2023/06/16 02:01:33;;;;;;;;;;;;;;;;;;5070714;28;20296;-59
2023/06/16 02:03:59;;;;;;;;;;;;;;;;;;5072835;28;19991;-60
2023/06/16 02:06:25;;;;;;;;;;;;;;;;;;5073564;28;19919;-59
2023/06/16 02:08:50;;;;;;;;;;;;;;;;;;5061789;28;20601;-59
2023/06/16 02:11:16;;;;;;;;;;;;;;;;;;5061212;28;20452;-59
2023/06/16 02:13:42;;;;;;;;;;;;;;;;;;5072373;28;20384;-60
2023/06/16 02:16:08;;;;;;;;;;;;;;;;;;5072175;28;19920;-59
2023/06/16 02:18:34;;;;;;;;;;;;;;;;;;5073866;28;19958;-60
2023/06/16 02:21:00;;;;;;;;;;;;;;;;;;5068757;28;20809;-59
2023/06/16 02:23:26;;;;;;;;;;;;;;;;;;5074007;28;20232;-60
2023/06/16 02:25:52;;;;;;;;;;;;;;;;;;5067687;28;19927;-59
2023/06/16 02:28:18;;;;;;;;;;;;;;;;;;5073181;28;19920;-60
2023/06/16 02:30:44;;;;;;;;;;;;;;;;;;5068768;28;19952;-59
2023/06/16 02:33:11;;;;;;;;;;;;;;;;;;5073114;28;19958;-60
2023/06/16 02:35:36;;;;;;;;;;;;;;;;;;5073728;28;20003;-59
2023/06/16 02:38:02;;;;;;;;;;;;;;;;;;5073777;28;19992;-59
2023/06/16 02:40:28;;;;;;;;;;;;;;;;;;5072668;28;19920;-59
2023/06/16 02:42:54;;;;;;;;;;;;;;;;;;5071249;28;20011;-59
2023/06/16 02:45:20;;;;;;;;;;;;;;;;;;5069025;28;19916;-59
2023/06/16 02:47:46;;;;;;;;;;;;;;;;;;5070600;28;19995;-59
2023/06/16 02:50:12;;;;;;;;;;;;;;;;;;5072597;28;20416;-60
2023/06/16 02:52:41;;;;;;;;;;;;;;;;;;5053424;28;19970;-59
2023/06/16 02:55:07;;;;;;;;;;;;;;;;;;5063462;28;20398;-59
2023/06/16 02:57:33;;;;;;;;;;;;;;;;;;5072280;28;19912;-59
2023/06/16 02:59:59;;;;;;;;;;;;;;;;;;5056090;28;20430;-59
2023/06/16 03:02:25;;;;;;;;;;;;;;;;;;5067366;28;19916;-59
2023/06/16 03:04:51;;;;;;;;;;;;;;;;;;5070349;28;19912;-59
2023/06/16 03:07:19;;;;;;;;;;;;;;;;;;5071730;28;20279;-59
2023/06/16 03:09:45;;;;;;;;;;;;;;;;;;5070516;28;19935;-59
2023/06/16 03:12:11;;;;;;;;;;;;;;;;;;5065584;28;19920;-59
2023/06/16 03:14:37;;;;;;;;;;;;;;;;;;5069904;28;19920;-59
2023/06/16 03:17:03;;;;;;;;;;;;;;;;;;5066677;28;20000;-59
2023/06/16 03:19:29;;;;;;;;;;;;;;;;;;5063791;28;19934;-59
2023/06/16 03:21:55;;;;;;;;;;;;;;;;;;5066470;28;19923;-59
2023/06/16 03:24:21;;;;;;;;;;;;;;;;;;5064383;28;19956;-59
2023/06/16 03:26:47;;;;;;;;;;;;;;;;;;5064126;28;19965;-59
2023/06/16 03:29:13;;;;;;;;;;;;;;;;;;5070755;28;20007;-59
2023/06/16 03:31:39;;;;;;;;;;;;;;;;;;5063850;28;19919;-60
2023/06/16 03:34:05;;;;;;;;;;;;;;;;;;5065914;28;20046;-59
2023/06/16 03:36:35;;;;;;;;;;;;;;;;;;5071987;28;20330;-59
2023/06/16 03:39:01;;;;;;;;;;;;;;;;;;5071874;28;20007;-59
2023/06/16 03:41:27;;;;;;;;;;;;;;;;;;5071243;28;20016;-59
2023/06/16 03:43:53;;;;;;;;;;;;;;;;;;5055382;28;19916;-59
2023/06/16 03:46:19;;;;;;;;;;;;;;;;;;5055165;28;19912;-59
2023/06/16 03:48:45;;;;;;;;;;;;;;;;;;5069014;28;19965;-59
2023/06/16 03:51:11;;;;;;;;;;;;;;;;;;5066326;28;20003;-60
2023/06/16 03:53:37;;;;;;;;;;;;;;;;;;5060656;28;19944;-60
2023/06/16 03:56:03;;;;;;;;;;;;;;;;;;5056941;28;19943;-59
2023/06/16 03:58:30;;;;;;;;;;;;;;;;;;5051331;28;19916;-59
2023/06/16 04:00:56;;;;;;;;;;;;;;;;;;5066397;28;20459;-59
2023/06/16 04:03:22;;;;;;;;;;;;;;;;;;5058573;28;19952;-60
2023/06/16 04:05:48;;;;;;;;;;;;;;;;;;5065055;28;19959;-59
2023/06/16 04:08:14;;;;;;;;;;;;;;;;;;5065349;28;20287;-59
2023/06/16 04:10:40;;;;;;;;;;;;;;;;;;5070847;28;19987;-60
2023/06/16 04:13:06;;;;;;;;;;;;;;;;;;5066024;28;19956;-60
2023/06/16 04:15:32;;;;;;;;;;;;;;;;;;5061902;28;20013;-59
2023/06/16 04:17:58;;;;;;;;;;;;;;;;;;5068513;28;19963;-59
2023/06/16 04:20:24;;;;;;;;;;;;;;;;;;5069234;28;19997;-60
2023/06/16 04:22:50;;;;;;;;;;;;;;;;;;5067792;28;19916;-60
2023/06/16 04:25:17;;;;;;;;;;;;;;;;;;5066067;28;20017;-59
2023/06/16 04:27:43;;;;;;;;;;;;;;;;;;5063242;28;20377;-59
2023/06/16 04:30:09;;;;;;;;;;;;;;;;;;5067190;28;20000;-60
2023/06/16 04:32:36;;;;;;;;;;;;;;;;;;5063214;28;20003;-60
2023/06/16 04:35:03;;;;;;;;;;;;;;;;;;5071178;28;19916;-60
2023/06/16 04:37:29;;;;;;;;;;;;;;;;;;5067843;28;19917;-60
2023/06/16 04:39:55;;;;;;;;;;;;;;;;;;5072970;28;19917;-59
2023/06/16 04:42:21;;;;;;;;;;;;;;;;;;5069686;28;19955;-59
2023/06/16 04:44:47;;;;;;;;;;;;;;;;;;5074152;28;19979;-59
2023/06/16 04:47:13;;;;;;;;;;;;;;;;;;5072475;28;19934;-60
2023/06/16 04:49:39;;;;;;;;;;;;;;;;;;5068915;28;19991;-59
2023/06/16 04:52:06;;;;;;;;;;;;;;;;;;5066904;28;20275;-60
2023/06/16 04:54:32;;;;;;;;;;;;;;;;;;5068474;28;20055;-60
2023/06/16 04:56:58;;;;;;;;;;;;;;;;;;5069042;28;20016;-60
2023/06/16 04:59:24;;;;;;;;;;;;;;;;;;5069676;28;20453;-59
2023/06/16 05:01:51;;;;;;;;;;;;;;;;;;5068002;28;20030;-59
2023/06/16 05:04:17;;;;;;;;;;;;;;;;;;5079417;28;19912;-60
2023/06/16 05:06:43;;;;;;;;;;;;;;;;;;5071077;28;19948;-60
2023/06/16 05:09:09;;;;;;;;;;;;;;;;;;5072645;28;19958;-60
2023/06/16 05:11:35;;;;;;;;;;;;;;;;;;5068822;28;20380;-61
2023/06/16 05:14:01;;;;;;;;;;;;;;;;;;5066405;28;19965;-59
2023/06/16 05:16:26;;;;;;;;;;;;;;;;;;5070314;28;19921;-59
2023/06/16 05:18:52;;;;;;;;;;;;;;;;;;5072100;28;19939;-60
2023/06/16 05:21:24;;;;;;;;;;;;;;;;;;5063800;28;20018;-59
2023/06/16 05:23:50;;;;;;;;;;;;;;;;;;5063802;28;19940;-60
2023/06/16 05:26:16;;;;;;;;;;;;;;;;;;5069238;28;21016;-59
2023/06/16 05:28:42;;;;;;;;;;;;;;;;;;5072281;28;20003;-60
2023/06/16 05:31:08;;;;;;;;;;;;;;;;;;5059904;28;19990;-59
2023/06/16 05:33:34;;;;;;;;;;;;;;;;;;5064561;28;19920;-59
2023/06/16 05:36:00;;;;;;;;;;;;;;;;;;5061027;28;19948;-60
2023/06/16 05:38:26;;;;;;;;;;;;;;;;;;5059620;28;20400;-59
2023/06/16 05:40:52;;;;;;;;;;;;;;;;;;5053734;28;19916;-59
2023/06/16 05:43:18;;;;;;;;;;;;;;;;;;5056112;28;20019;-60
2023/06/16 05:45:44;;;;;;;;;;;;;;;;;;5062527;28;19938;-60
2023/06/16 05:48:10;;;;;;;;;;;;;;;;;;5056150;28;20034;-60
2023/06/16 05:50:36;;;;;;;;;;;;;;;;;;5061298;28;20479;-60
2023/06/16 05:53:02;;;;;;;;;;;;;;;;;;5068091;28;19951;-59
2023/06/16 05:55:28;;;;;;;;;;;;;;;;;;5055418;28;19920;-59
2023/06/16 05:57:54;;;;;;;;;;;;;;;;;;5057605;28;19960;-59
2023/06/16 06:00:19;;;;;;;;;;;;;;;;;;5055049;28;19924;-60
2023/06/16 06:02:45;;;;;;;;;;;;;;;;;;5055181;28;19952;-60
2023/06/16 06:05:11;;;;;;;;;;;;;;;;;;5066957;28;20261;-60
2023/06/16 06:07:37;;;;;;;;;;;;;;;;;;5061267;28;19909;-60
2023/06/16 06:10:03;;;;;;;;;;;;;;;;;;5060173;28;20035;-60
2023/06/16 06:12:29;;;;;;;;;;;;;;;;;;5062890;28;19912;-60
2023/06/16 06:14:55;;;;;;;;;;;;;;;;;;5057802;28;20403;-60
2023/06/16 06:17:21;;;;;;;;;;;;;;;;;;5062616;28;19924;-60
2023/06/16 06:19:47;;;;;;;;;;;;;;;;;;5066051;28;20333;-60
2023/06/16 06:22:13;;;;;;;;;;;;;;;;;;5064283;28;20367;-61
2023/06/16 06:24:39;;;;;;;;;;;;;;;;;;5053741;28;20003;-60
2023/06/16 06:27:05;;;;;;;;;;;;;;;;;;5070109;28;20372;-60
2023/06/16 06:29:32;;;;;;;;;;;;;;;;;;5072523;28;19954;-61
2023/06/16 06:31:58;;;;;;;;;;;;;;;;;;5056959;28;20299;-60
2023/06/16 06:34:24;;;;;;;;;;;;;;;;;;5073089;28;19951;-61
2023/06/16 06:36:50;;;;;;;;;;;;;;;;;;5066715;28;19916;-60
2023/06/16 06:39:16;;;;;;;;;;;;;;;;;;5057283;28;19921;-60
2023/06/16 06:41:42;;;;;;;;;;;;;;;;;;5072483;28;20324;-60
2023/06/16 06:44:08;;;;;;;;;;;;;;;;;;5072863;28;19943;-60
2023/06/16 06:46:34;;;;;;;;;;;;;;;;;;5072795;28;19966;-61
2023/06/16 06:49:00;;;;;;;;;;;;;;;;;;5070260;28;19943;-60
2023/06/16 06:51:26;;;;;;;;;;;;;;;;;;5054589;28;20269;-60
2023/06/16 06:53:52;;;;;;;;;;;;;;;;;;5071954;28;20062;-60
2023/06/16 06:56:18;;;;;;;;;;;;;;;;;;5070694;28;19963;-60
2023/06/16 06:58:43;;;;;;;;;;;;;;;;;;5068933;28;19917;-60
2023/06/16 07:01:09;;;;;;;;;;;;;;;;;;5071527;28;19967;-60
2023/06/16 07:03:36;;;;;;;;;;;;;;;;;;5058119;28;19943;-61
2023/06/16 07:06:02;;;;;;;;;;;;;;;;;;5058892;28;19908;-60
2023/06/16 07:08:28;;;;;;;;;;;;;;;;;;5052033;28;20007;-60
2023/06/16 07:10:53;;;;;;;;;;;;;;;;;;5058202;28;19934;-61
2023/06/16 07:13:19;;;;;;;;;;;;;;;;;;5064483;28;20375;-61
2023/06/16 07:15:45;;;;;;;;;;;;;;;;;;5074547;28;19920;-61
2023/06/16 07:18:11;;;;;;;;;;;;;;;;;;5078895;28;19958;-60
2023/06/16 07:20:37;;;;;;;;;;;;;;;;;;5091918;28;19909;-60
2023/06/16 07:23:03;;;;;;;;;;;;;;;;;;5078924;28;20356;-61
2023/06/16 07:25:32;;;;;;;;;;;;;;;;;;5072032;28;19955;-60
2023/06/16 07:27:58;;;;;;;;;;;;;;;;;;5071268;28;20350;-61
2023/06/16 07:30:24;;;;;;;;;;;;;;;;;;5078641;28;19934;-60
2023/06/16 07:32:50;;;;;;;;;;;;;;;;;;5070246;28;20039;-60
2023/06/16 07:35:16;;;;;;;;;;;;;;;;;;5072266;28;19981;-60
2023/06/16 07:37:42;;;;;;;;;;;;;;;;;;5071787;28;19927;-60
2023/06/16 07:40:09;;;;;;;;;;;;;;;;;;5070255;28;19916;-60
2023/06/16 07:42:35;;;;;;;;;;;;;;;;;;5064381;28;19932;-60
2023/06/16 07:45:01;;;;;;;;;;;;;;;;;;5068673;28;19951;-60
2023/06/16 07:47:27;;;;;;;;;;;;;;;;;;5066986;28;20438;-60
2023/06/16 07:49:53;;;;;;;;;;;;;;;;;;5071030;28;20001;-61
2023/06/16 07:52:19;;;;;;;;;;;;;;;;;;5070260;28;19944;-61
2023/06/16 07:54:46;;;;;;;;;;;;;;;;;;5064371;28;19946;-60
2023/06/16 07:57:12;;;;;;;;;;;;;;;;;;5070566;28;19999;-60
2023/06/16 07:59:38;;;;;;;;;;;;;;;;;;5070521;28;20397;-60
2023/06/16 08:02:04;;;;;;;;;;;;;;;;;;5064775;28;19961;-60
2023/06/16 08:04:30;;;;;;;;;;;;;;;;;;5068364;28;19954;-59
2023/06/16 08:06:57;;;;;;;;;;;;;;;;;;5064235;28;19912;-59
2023/06/16 08:09:26;;;;;;;;;;;;;;;;;;5064350;28;19916;-59
2023/06/16 08:11:51;;;;;;;;;;;;;;;;;;5065452;28;20729;-60
2023/06/16 08:14:17;;;;;;;;;;;;;;;;;;5052513;28;20023;-62
2023/06/16 08:16:43;;;;;;;;;;;;;;;;;;5067912;28;19920;-61
2023/06/16 08:19:09;;;;;;;;;;;;;;;;;;5067125;28;20269;-61
2023/06/16 08:21:37;;;;;;;;;;;;;;;;;;5061029;28;19916;-60
2023/06/16 08:24:03;;;;;;;;;;;;;;;;;;5058025;28;19916;-61
2023/06/16 08:26:29;;;;;;;;;;;;;;;;;;5063372;28;19951;-61
2023/06/16 08:28:55;;;;;;;;;;;;;;;;;;5067041;28;19908;-61
2023/06/16 08:31:21;;;;;;;;;;;;;;;;;;5066607;28;19970;-61
2023/06/16 08:33:47;;;;;;;;;;;;;;;;;;5063567;28;19916;-61
2023/06/16 08:36:13;;;;;;;;;;;;;;;;;;5067793;28;19913;-61
2023/06/16 08:38:39;;;;;;;;;;;;;;;;;;5048580;28;20396;-60
2023/06/16 08:41:08;;;;;;;;;;;;;;;;;;5067915;28;19912;-61
2023/06/16 08:43:33;;;;;;;;;;;;;;;;;;5065472;28;19920;-61
2023/06/16 08:46:00;;;;;;;;;;;;;;;;;;5062042;28;19952;-61
2023/06/16 08:48:26;;;;;;;;;;;;;;;;;;5063593;28;20026;-61
2023/06/16 08:50:52;;;;;;;;;;;;;;;;;;5066882;28;19920;-60
2023/06/16 08:53:18;;;;;;;;;;;;;;;;;;5063791;28;19917;-61
2023/06/16 08:55:44;;;;;;;;;;;;;;;;;;5067405;28;19909;-61
2023/06/16 08:58:15;;;;;;;;;;;;;;;;;;5066172;28;19917;-61
2023/06/16 09:00:41;;;;;;;;;;;;;;;;;;5060300;28;19916;-60
2023/06/16 09:03:08;;;;;;;;;;;;;;;;;;5066786;28;19978;-60
2023/06/16 09:05:34;;;;;;;;;;;;;;;;;;5066799;28;19924;-60
2023/06/16 09:08:01;;;;;;;;;;;;;;;;;;5066063;28;20411;-60
2023/06/16 09:10:27;;;;;;;;;;;;;;;;;;5066128;28;19943;-60
2023/06/16 09:12:53;;;;;;;;;;;;;;;;;;5056349;28;19913;-57
2023/06/16 09:15:20;;;;;;;;;;;;;;;;;;5061295;28;20296;-61
2023/06/16 09:17:45;;;;;;;;;;;;;;;;;;5056077;28;20478;-60
2023/06/16 09:20:11;;;;;;;;;;;;;;;;;;5058224;28;19991;-61
2023/06/16 09:22:37;;;;;;;;;;;;;;;;;;5071207;28;19975;-60
2023/06/16 09:25:05;;;;;;;;;;;;;;;;;;5058725;28;19979;-60
2023/06/16 09:27:31;;;;;;;;;;;;;;;;;;5054862;28;20365;-60
2023/06/16 09:29:57;;;;;;;;;;;;;;;;;;5065508;28;19954;-61
2023/06/16 09:32:22;;;;;;;;;;;;;;;;;;5074039;28;19913;-58
2023/06/16 09:34:48;;;;;;;;;;;;;;;;;;5073863;28;19981;-60
2023/06/16 09:37:14;;;;;;;;;;;;;;;;;;5072557;28;19943;-60
2023/06/16 09:39:41;;;;;;;;;;;;;;;;;;5071404;28;20405;-60
2023/06/16 09:42:06;;;;;;;;;;;;;;;;;;5070847;28;19921;-58
2023/06/16 09:44:32;;;;;;;;;;;;;;;;;;5070599;28;20011;-61
2023/06/16 09:46:58;;;;;;;;;;;;;;;;;;5069929;28;20451;-60
2023/06/16 09:49:25;;;;;;;;;;;;;;;;;;5069247;28;19913;-59
2023/06/16 09:51:50;;;;;;;;;;;;;;;;;;5071536;28;20414;-60
2023/06/16 09:54:16;;;;;;;;;;;;;;;;;;5070442;28;19959;-60
2023/06/16 09:56:42;;;;;;;;;;;;;;;;;;5068643;28;19961;-58
2023/06/16 09:59:08;;;;;;;;;;;;;;;;;;5072552;28;20413;-60
2023/06/16 10:01:34;;;;;;;;;;;;;;;;;;5073116;28;19954;-61
2023/06/16 10:04:00;;;;;;;;;;;;;;;;;;5071510;28;20340;-60
2023/06/16 10:06:28;;;;;;;;;;;;;;;;;;5071361;28;19912;-60
2023/06/16 10:08:54;;;;;;;;;;;;;;;;;;5069484;28;19912;-60
2023/06/16 10:11:20;;;;;;;;;;;;;;;;;;5071494;28;19959;-60
2023/06/16 10:13:46;;;;;;;;;;;;;;;;;;5070868;28;19940;-60
2023/06/16 10:16:12;;;;;;;;;;;;;;;;;;5066878;28;19971;-60
2023/06/16 10:18:38;;;;;;;;;;;;;;;;;;5073066;28;20428;-60
2023/06/16 10:21:04;;;;;;;;;;;;;;;;;;5069158;28;19919;-60
2023/06/16 10:23:30;;;;;;;;;;;;;;;;;;5069331;28;19917;-60
2023/06/16 10:25:56;;;;;;;;;;;;;;;;;;5070971;28;20332;-60
2023/06/16 10:28:22;;;;;;;;;;;;;;;;;;5068697;28;19955;-61
2023/06/16 10:30:48;;;;;;;;;;;;;;;;;;5062044;28;19974;-61
2023/06/16 10:33:14;;;;;;;;;;;;;;;;;;5069923;28;20368;-61
2023/06/16 10:35:40;;;;;;;;;;;;;;;;;;5067671;28;19962;-61
2023/06/16 10:38:06;;;;;;;;;;;;;;;;;;5068153;28;19948;-61
2023/06/16 10:40:32;;;;;;;;;;;;;;;;;;5076421;28;20534;-61
2023/06/16 10:42:57;;;;;;;;;;;;;;;;;;5068270;28;19949;-61
2023/06/16 10:45:26;;;;;;;;;;;;;;;;;;5066621;28;19964;-61
2023/06/16 10:47:52;;;;;;;;;;;;;;;;;;5063861;28;19917;-60
2023/06/16 10:50:18;;;;;;;;;;;;;;;;;;5063520;28;19962;-61
2023/06/16 10:52:44;;;;;;;;;;;;;;;;;;5062089;28;20330;-62
2023/06/16 10:55:10;;;;;;;;;;;;;;;;;;5069735;28;20387;-61
2023/06/16 10:57:36;;;;;;;;;;;;;;;;;;5068758;28;19940;-61
2023/06/16 11:00:11;;;;;;;;;;;;;;;;;;5068694;28;19965;-62
2023/06/16 11:02:37;;;;;;;;;;;;;;;;;;5063497;28;20007;-61
2023/06/16 11:05:04;;;;;;;;;;;;;;;;;;5063528;28;20443;-61
2023/06/16 11:07:30;;;;;;;;;;;;;;;;;;5068733;28;20060;-60
2023/06/16 11:09:56;;;;;;;;;;;;;;;;;;5067718;28;19959;-60
2023/06/16 11:12:22;;;;;;;;;;;;;;;;;;5067411;28;20384;-60
2023/06/16 11:14:48;;;;;;;;;;;;;;;;;;5067801;28;19919;-59
2023/06/16 11:17:14;;;;;;;;;;;;;;;;;;5068525;28;20257;-59
2023/06/16 11:19:40;;;;;;;;;;;;;;;;;;5069269;28;20444;-60
2023/06/16 11:22:06;;;;;;;;;;;;;;;;;;5063802;28;19916;-59
2023/06/16 11:24:32;;;;;;;;;;;;;;;;;;5069456;28;19912;-59
2023/06/16 11:26:58;;;;;;;;;;;;;;;;;;5047206;28;19923;-60
2023/06/16 11:29:26;;;;;;;;;;;;;;;;;;5062152;28;20007;-60
2023/06/16 11:31:52;;;;;;;;;;;;;;;;;;5058277;28;19948;-60
2023/06/16 11:34:18;;;;;;;;;;;;;;;;;;5068381;28;19983;-60
2023/06/16 11:36:45;;;;;;;;;;;;;;;;;;5067383;28;19951;-60
2023/06/16 11:39:11;;;;;;;;;;;;;;;;;;5066982;28;19912;-60
2023/06/16 11:41:37;;;;;;;;;;;;;;;;;;5057519;28;19913;-60
2023/06/16 11:44:03;;;;;;;;;;;;;;;;;;5055842;28;19992;-61
2023/06/16 11:46:29;;;;;;;;;;;;;;;;;;5063146;28;19959;-59
2023/06/16 11:48:55;;;;;;;;;;;;;;;;;;5062096;28;19920;-60
2023/06/16 11:51:21;;;;;;;;;;;;;;;;;;5068311;28;20015;-60
2023/06/16 11:53:47;;;;;;;;;;;;;;;;;;5063619;28;19966;-62
2023/06/16 11:56:13;;;;;;;;;;;;;;;;;;5066338;28;19913;-62
2023/06/16 11:58:39;;;;;;;;;;;;;;;;;;5061889;28;20351;-62
2023/06/16 12:01:05;;;;;;;;;;;;;;;;;;5055504;28;20384;-62
2023/06/16 12:03:31;;;;;;;;;;;;;;;;;;5066909;28;19955;-61
2023/06/16 12:05:57;;;;;;;;;;;;;;;;;;5070258;28;20287;-61
2023/06/16 12:08:23;;;;;;;;;;;;;;;;;;5071475;28;19908;-61
2023/06/16 12:10:49;;;;;;;;;;;;;;;;;;5064541;28;20007;-61
2023/06/16 12:13:15;;;;;;;;;;;;;;;;;;5064554;28;19912;-61
2023/06/16 12:15:41;;;;;;;;;;;;;;;;;;5070904;28;19967;-62
2023/06/16 12:18:07;;;;;;;;;;;;;;;;;;5071413;28;19970;-60
2023/06/16 12:20:33;;;;;;;;;;;;;;;;;;5067124;28;19920;-62
2023/06/16 12:22:59;;;;;;;;;;;;;;;;;;5069720;28;19954;-62
2023/06/16 12:25:26;;;;;;;;;;;;;;;;;;5066699;28;19940;-61
2023/06/16 12:27:54;;;;;;;;;;;;;;;;;;5069653;28;20345;-61
2023/06/16 12:30:20;;;;;;;;;;;;;;;;;;5068970;28;20379;-60
2023/06/16 12:32:46;;;;;;;;;;;;;;;;;;5068878;28;19913;-61
2023/06/16 12:35:12;;;;;;;;;;;;;;;;;;5071053;28;19948;-61
2023/06/16 12:37:38;;;;;;;;;;;;;;;;;;5048413;28;20059;-62
2023/06/16 12:40:04;;;;;;;;;;;;;;;;;;5064910;28;20066;-62
2023/06/16 12:42:30;;;;;;;;;;;;;;;;;;5066615;28;20315;-62
2023/06/16 12:44:59;;;;;;;;;;;;;;;;;;5064344;28;19971;-62
2023/06/16 12:47:24;;;;;;;;;;;;;;;;;;5063981;28;20288;-62
2023/06/16 12:49:51;;;;;;;;;;;;;;;;;;5070298;28;19971;-61
2023/06/16 12:52:19;;;;;;;;;;;;;;;;;;5069305;28;19920;-62
2023/06/16 12:54:45;;;;;;;;;;;;;;;;;;5061693;28;19912;-62
2023/06/16 12:57:11;;;;;;;;;;;;;;;;;;5066558;28;19927;-62
2023/06/16 12:59:37;;;;;;;;;;;;;;;;;;5067112;28;19919;-62
2023/06/16 13:02:03;;;;;;;;;;;;;;;;;;5065221;28;19952;-61
2023/06/16 13:04:29;;;;;;;;;;;;;;;;;;5061303;28;19996;-61
2023/06/16 13:06:55;;;;;;;;;;;;;;;;;;5066268;28;19975;-61
2023/06/16 13:09:21;;;;;;;;;;;;;;;;;;5066044;28;19913;-62
2023/06/16 13:11:47;;;;;;;;;;;;;;;;;;5066165;28;19912;-62
2023/06/16 13:14:13;;;;;;;;;;;;;;;;;;5066856;28;19917;-62
2023/06/16 13:16:39;;;;;;;;;;;;;;;;;;5060664;28;19959;-62
2023/06/16 13:19:05;;;;;;;;;;;;;;;;;;5072882;28;19912;-63
2023/06/16 13:21:31;;;;;;;;;;;;;;;;;;5070532;28;20706;-62
2023/06/16 13:23:57;;;;;;;;;;;;;;;;;;5061912;28;20010;-63
2023/06/16 13:26:23;;;;;;;;;;;;;;;;;;5070401;28;20003;-62
2023/06/16 13:28:49;;;;;;;;;;;;;;;;;;5066514;28;19916;-63
2023/06/16 13:31:15;;;;;;;;;;;;;;;;;;5064731;28;19948;-62
2023/06/16 13:33:44;;;;;;;;;;;;;;;;;;5073835;28;19944;-62
2023/06/16 13:36:12;;;;;;;;;;;;;;;;;;5070125;28;19913;-62
2023/06/16 13:38:38;;;;;;;;;;;;;;;;;;5073722;28;19912;-60
2023/06/16 13:41:03;;;;;;;;;;;;;;;;;;5069551;28;20017;-62
2023/06/16 13:43:29;;;;;;;;;;;;;;;;;;5071119;28;19913;-61
2023/06/16 13:45:55;;;;;;;;;;;;;;;;;;5081745;28;19911;-62
2023/06/16 13:48:21;;;;;;;;;;;;;;;;;;5052145;28;20288;-63
2023/06/16 13:50:47;;;;;;;;;;;;;;;;;;5075877;28;20420;-64
2023/06/16 13:53:13;;;;;;;;;;;;;;;;;;5072861;28;19951;-62
2023/06/16 13:55:39;;;;;;;;;;;;;;;;;;5078040;28;19916;-63
2023/06/16 13:58:05;;;;;;;;;;;;;;;;;;5061456;28;20401;-62
2023/06/16 14:00:31;;;;;;;;;;;;;;;;;;5066617;28;19932;-63
2023/06/16 14:02:57;;;;;;;;;;;;;;;;;;5066550;28;20747;-64
2023/06/16 14:05:23;;;;;;;;;;;;;;;;;;5066436;28;19971;-63
2023/06/16 14:07:49;;;;;;;;;;;;;;;;;;5067639;28;19990;-61
2023/06/16 14:10:17;;;;;;;;;;;;;;;;;;5062892;28;20026;-62
2023/06/16 14:12:43;;;;;;;;;;;;;;;;;;5068651;28;19926;-62
2023/06/16 14:15:10;;;;;;;;;;;;;;;;;;5068839;28;20012;-62
2023/06/16 14:17:38;;;;;;;;;;;;;;;;;;5063844;28;19932;-63
2023/06/16 14:20:04;;;;;;;;;;;;;;;;;;5064833;28;19970;-62
2023/06/16 14:22:29;;;;;;;;;;;;;;;;;;5063061;28;20000;-62
2023/06/16 14:24:55;;;;;;;;;;;;;;;;;;5066127;28;20401;-63
2023/06/16 14:27:21;;;;;;;;;;;;;;;;;;5066512;28;19926;-62
2023/06/16 14:29:47;;;;;;;;;;;;;;;;;;5063329;28;20332;-62
2023/06/16 14:32:13;;;;;;;;;;;;;;;;;;5064545;28;19999;-62
2023/06/16 14:34:39;;;;;;;;;;;;;;;;;;5066884;28;19924;-62
2023/06/16 14:37:05;;;;;;;;;;;;;;;;;;5062402;28;20421;-63
2023/06/16 14:39:31;;;;;;;;;;;;;;;;;;5066495;28;20011;-63
2023/06/16 14:41:57;;;;;;;;;;;;;;;;;;5068643;28;19925;-60
2023/06/16 14:44:23;;;;;;;;;;;;;;;;;;5065896;28;20416;-61
2023/06/16 14:46:49;;;;;;;;;;;;;;;;;;5069190;28;19917;-62
2023/06/16 14:49:15;;;;;;;;;;;;;;;;;;5063391;28;20003;-62
2023/06/16 14:51:42;;;;;;;;;;;;;;;;;;5056034;28;19948;-63
2023/06/16 14:54:08;;;;;;;;;;;;;;;;;;5067477;28;20416;-62
2023/06/16 14:56:35;;;;;;;;;;;;;;;;;;5063474;28;19999;-62
2023/06/16 14:59:01;;;;;;;;;;;;;;;;;;5064908;28;20011;-62
2023/06/16 15:01:26;;;;;;;;;;;;;;;;;;5054417;28;20030;-62
2023/06/16 15:03:52;;;;;;;;;;;;;;;;;;5071584;28;19922;-63
2023/06/16 15:06:19;;;;;;;;;;;;;;;;;;5066534;28;19965;-62
2023/06/16 15:08:45;;;;;;;;;;;;;;;;;;5059633;28;19942;-62
2023/06/16 15:11:12;;;;;;;;;;;;;;;;;;5069552;28;19991;-62
2023/06/16 15:13:37;;;;;;;;;;;;;;;;;;5064075;28;19913;-63
2023/06/16 15:16:03;;;;;;;;;;;;;;;;;;5058631;28;19927;-62
2023/06/16 15:18:29;;;;;;;;;;;;;;;;;;5069100;28;19955;-62
2023/06/16 15:20:55;;;;;;;;;;;;;;;;;;5058928;28;20313;-63
2023/06/16 15:23:21;;;;;;;;;;;;;;;;;;5064969;28;19948;-62
2023/06/16 15:25:47;;;;;;;;;;;;;;;;;;5052349;28;20331;-62
2023/06/16 15:28:13;;;;;;;;;;;;;;;;;;5071942;28;19993;-63
2023/06/16 15:30:39;;;;;;;;;;;;;;;;;;5057140;28;20059;-63
2023/06/16 15:33:05;;;;;;;;;;;;;;;;;;5063524;28;19965;-62
2023/06/16 15:35:31;;;;;;;;;;;;;;;;;;5071080;28;19977;-62
2023/06/16 15:37:57;;;;;;;;;;;;;;;;;;5071113;28;19908;-61
2023/06/16 15:40:23;;;;;;;;;;;;;;;;;;5070449;28;20349;-62
2023/06/16 15:42:48;;;;;;;;;;;;;;;;;;5068742;28;19967;-63
2023/06/16 15:45:14;;;;;;;;;;;;;;;;;;5060848;28;19912;-62
2023/06/16 15:47:40;;;;;;;;;;;;;;;;;;5065614;28;19912;-63
2023/06/16 15:50:06;;;;;;;;;;;;;;;;;;5069865;28;20001;-63
2023/06/16 15:52:34;;;;;;;;;;;;;;;;;;5067983;28;19995;-62
2023/06/16 15:55:00;;;;;;;;;;;;;;;;;;5065655;28;19966;-62
2023/06/16 15:57:26;;;;;;;;;;;;;;;;;;5069479;28;19920;-63
2023/06/16 15:59:51;;;;;;;;;;;;;;;;;;5061172;28;19950;-62
2023/06/16 16:02:17;;;;;;;;;;;;;;;;;;5067239;28;19969;-62
2023/06/16 16:04:43;;;;;;;;;;;;;;;;;;5065870;28;19908;-61
2023/06/16 16:07:09;;;;;;;;;;;;;;;;;;5064167;28;19928;-61
2023/06/16 16:09:35;;;;;;;;;;;;;;;;;;5068845;28;19908;-61
2023/06/16 16:12:01;;;;;;;;;;;;;;;;;;5066964;28;19912;-61
2023/06/16 16:14:27;;;;;;;;;;;;;;;;;;5057873;28;19995;-62
2023/06/16 16:16:53;;;;;;;;;;;;;;;;;;5066863;28;19921;-61
2023/06/16 16:19:19;;;;;;;;;;;;;;;;;;5069648;28;19928;-60
2023/06/16 16:21:45;;;;;;;;;;;;;;;;;;5067070;28;20658;-61
2023/06/16 16:24:12;;;;;;;;;;;;;;;;;;5068163;28;19913;-61
2023/06/16 16:26:38;;;;;;;;;;;;;;;;;;5071104;28;19912;-61
2023/06/16 16:29:04;;;;;;;;;;;;;;;;;;5073206;28;20651;-61
2023/06/16 16:31:30;;;;;;;;;;;;;;;;;;5074921;28;19912;-61
2023/06/16 16:33:56;;;;;;;;;;;;;;;;;;5075221;28;20296;-61
2023/06/16 16:36:22;;;;;;;;;;;;;;;;;;5064095;28;19982;-61
2023/06/16 16:38:48;;;;;;;;;;;;;;;;;;5070605;28;19912;-61